createdAt,value
2018-11-28T00:00:28.895Z,26.70
2018-11-28T00:02:57.926Z,27.55
2018-11-28T00:05:26.692Z,25.30
2018-11-28T00:07:55.431Z,26.40
2018-11-28T00:10:24.210Z,25.82
2018-11-28T00:12:52.972Z,27.17
2018-11-28T00:15:21.733Z,26.95
2018-11-28T00:17:50.471Z,27.42
2018-11-28T00:20:20.705Z,30.35
2018-11-28T00:22:49.443Z,27.10
2018-11-28T00:25:18.757Z,28.45
2018-11-28T00:27:47.545Z,27.70
2018-11-28T00:30:19.941Z,25.10
2018-11-28T00:32:48.704Z,26.82
2018-11-28T00:35:18.300Z,26.50
2018-11-28T00:37:47.000Z,26.17
2018-11-28T00:40:16.903Z,24.23
2018-11-28T00:42:45.633Z,24.35
2018-11-28T00:45:16.553Z,27.58
2018-11-28T00:47:45.378Z,27.13
2018-11-28T00:50:15.291Z,28.92
2018-11-28T00:52:44.089Z,27.48
2018-11-28T00:55:14.678Z,26.77
2018-11-28T00:57:43.426Z,26.23
2018-11-28T01:00:13.591Z,27.52
2018-11-28T01:02:42.939Z,27.60
2018-11-28T01:05:12.463Z,27.82
2018-11-28T01:07:41.453Z,25.95
2018-11-28T01:10:13.360Z,26.17
2018-11-28T01:12:42.099Z,27.32
2018-11-28T01:15:12.140Z,25.57
2018-11-28T01:17:40.923Z,25.57
2018-11-28T01:20:11.770Z,25.23
2018-11-28T01:22:40.522Z,26.75
2018-11-28T01:25:13.066Z,26.27
2018-11-28T01:27:41.797Z,27.48
2018-11-28T01:30:15.307Z,27.55
2018-11-28T01:32:44.470Z,30.40
2018-11-28T01:35:14.158Z,26.90
2018-11-28T01:37:43.248Z,27.30
2018-11-28T01:40:13.107Z,25.20
2018-11-28T01:42:41.816Z,28.87
2018-11-28T01:45:13.097Z,33.05
2018-11-28T01:47:42.064Z,28.75
2018-11-28T01:50:13.584Z,26.68
2018-11-28T01:52:42.372Z,26.75
2018-11-28T01:55:12.965Z,26.27
2018-11-28T01:57:41.610Z,26.48
2018-11-28T02:00:14.546Z,27.10
2018-11-28T02:02:43.355Z,28.00
2018-11-28T02:05:12.720Z,26.95
2018-11-28T02:07:41.506Z,28.17
2018-11-28T02:10:12.343Z,26.97
2018-11-28T02:12:41.283Z,27.17
2018-11-28T02:15:22.507Z,27.13
2018-11-28T02:17:51.842Z,27.17
2018-11-28T02:20:21.033Z,29.37
2018-11-28T02:22:51.242Z,26.95
2018-11-28T02:25:20.572Z,26.93
2018-11-28T02:27:49.715Z,25.30
2018-11-28T02:30:20.096Z,26.35
2018-11-28T02:32:50.194Z,26.17
2018-11-28T02:35:21.431Z,25.10
2018-11-28T02:37:50.829Z,28.32
2018-11-28T02:40:20.512Z,24.95
2018-11-28T02:42:50.599Z,27.10
2018-11-28T02:45:21.765Z,25.60
2018-11-28T02:47:51.720Z,24.02
2018-11-28T02:50:20.938Z,24.05
2018-11-28T02:52:50.227Z,26.60
2018-11-28T02:55:19.701Z,26.90
2018-11-28T02:57:50.617Z,25.97
2018-11-28T03:00:21.929Z,25.82
2018-11-28T03:02:51.381Z,25.82
2018-11-28T03:05:20.853Z,24.60
2018-11-28T03:07:50.795Z,27.27
2018-11-28T03:10:22.924Z,23.95
2018-11-28T03:12:53.279Z,25.37
2018-11-28T03:15:28.595Z,24.45
2018-11-28T03:17:57.748Z,26.57
2018-11-28T03:20:27.367Z,26.55
2018-11-28T03:22:57.422Z,24.63
2018-11-28T03:25:26.768Z,25.48
2018-11-28T03:27:56.726Z,26.95
2018-11-28T03:30:25.938Z,24.75
2018-11-28T03:32:55.227Z,25.08
2018-11-28T03:35:24.514Z,25.37
2018-11-28T03:37:54.769Z,25.17
2018-11-28T03:40:24.166Z,25.10
2018-11-28T03:42:53.486Z,25.00
2018-11-28T03:45:22.770Z,23.85
2018-11-28T03:47:52.105Z,23.75
2018-11-28T03:50:21.461Z,23.42
2018-11-28T03:52:50.818Z,23.20
2018-11-28T03:55:20.066Z,23.35
2018-11-28T03:57:49.484Z,23.25
2018-11-28T04:00:19.879Z,23.60
2018-11-28T04:02:49.499Z,22.67
2018-11-28T04:05:19.363Z,23.85
2018-11-28T04:07:49.301Z,23.95
2018-11-28T04:10:18.553Z,22.93
2018-11-28T04:12:48.703Z,23.55
2018-11-28T04:15:19.940Z,23.25
2018-11-28T04:17:49.473Z,21.95
2018-11-28T04:20:20.514Z,22.75
2018-11-28T04:22:49.890Z,24.35
2018-11-28T04:25:20.367Z,24.02
2018-11-28T04:27:49.734Z,23.92
2018-11-28T04:30:21.808Z,24.23
2018-11-28T04:32:51.705Z,25.65
2018-11-28T04:35:21.031Z,24.02
2018-11-28T04:37:51.115Z,24.60
2018-11-28T04:40:22.116Z,23.32
2018-11-28T04:42:51.595Z,21.17
2018-11-28T04:45:25.570Z,25.25
2018-11-28T04:47:56.522Z,25.80
2018-11-28T04:50:27.868Z,24.85
2018-11-28T04:52:57.090Z,24.82
2018-11-28T04:55:27.731Z,24.60
2018-11-28T04:57:57.031Z,24.77
2018-11-28T05:00:27.057Z,26.20
2018-11-28T05:02:57.361Z,25.72
2018-11-28T05:05:27.167Z,23.70
2018-11-28T05:07:56.553Z,24.98
2018-11-28T05:10:28.921Z,23.98
2018-11-28T05:12:58.991Z,24.20
2018-11-28T05:15:29.526Z,23.38
2018-11-28T05:17:58.870Z,20.95
2018-11-28T05:20:32.198Z,23.65
2018-11-28T05:23:01.646Z,24.10
2018-11-28T05:25:30.891Z,24.82
2018-11-28T05:28:00.495Z,22.35
2018-11-28T05:30:30.610Z,23.70
2018-11-28T05:33:00.299Z,22.13
2018-11-28T05:35:31.508Z,22.67
2018-11-28T05:38:09.054Z,23.45
2018-11-28T05:40:38.454Z,23.07
2018-11-28T05:43:08.037Z,23.00
2018-11-28T05:45:37.408Z,24.87
2018-11-28T05:48:06.866Z,23.30
2018-11-28T05:50:36.170Z,24.18
2018-11-28T05:53:05.476Z,21.10
2018-11-28T05:55:35.258Z,22.05
2018-11-28T05:58:05.375Z,21.95
2018-11-28T06:00:38.474Z,23.92
2018-11-28T06:03:09.455Z,23.57
2018-11-28T06:05:38.685Z,25.52
2018-11-28T06:08:10.164Z,23.52
2018-11-28T06:10:39.094Z,24.00
2018-11-28T06:13:08.609Z,25.48
2018-11-28T06:15:37.849Z,25.20
2018-11-28T06:18:08.374Z,23.55
2018-11-28T06:20:37.345Z,25.65
2018-11-28T06:23:07.824Z,26.30
2018-11-28T06:25:37.694Z,26.00
2018-11-28T06:28:09.238Z,24.45
2018-11-28T06:30:38.020Z,24.02
2018-11-28T06:33:07.192Z,24.67
2018-11-28T06:35:36.476Z,25.62
2018-11-28T06:38:05.733Z,24.60
2018-11-28T06:40:34.940Z,25.77
2018-11-28T06:43:04.998Z,26.30
2018-11-28T06:45:35.380Z,27.15
2018-11-28T06:48:04.669Z,25.90
2018-11-28T06:50:33.456Z,25.92
2018-11-28T06:53:02.219Z,25.15
2018-11-28T06:55:31.022Z,25.75
2018-11-28T06:57:59.872Z,25.95
2018-11-28T07:00:28.567Z,27.05
2018-11-28T07:02:57.323Z,26.82
2018-11-28T07:05:26.592Z,26.12
2018-11-28T07:07:55.299Z,27.22
2018-11-28T07:10:24.054Z,27.10
2018-11-28T07:12:52.839Z,27.77
2018-11-28T07:15:23.641Z,27.45
2018-11-28T07:17:52.428Z,24.43
2018-11-28T07:20:21.223Z,27.10
2018-11-28T07:22:49.965Z,29.27
2018-11-28T07:25:19.298Z,30.23
2018-11-28T07:27:48.819Z,32.40
2018-11-28T07:30:20.680Z,31.93
2018-11-28T07:32:51.331Z,29.57
2018-11-28T07:35:20.209Z,31.02
2018-11-28T07:37:48.963Z,29.27
2018-11-28T07:40:21.045Z,27.48
2018-11-28T07:43:04.390Z,29.12
2018-11-28T07:45:33.074Z,26.85
2018-11-28T07:48:01.828Z,29.00
2018-11-28T07:50:30.611Z,29.55
2018-11-28T07:53:00.629Z,29.23
2018-11-28T07:55:29.984Z,26.55
2018-11-28T07:57:58.788Z,24.90
2018-11-28T08:00:27.555Z,26.10
2018-11-28T08:02:56.410Z,26.60
2018-11-28T08:05:25.225Z,25.50
2018-11-28T08:07:54.058Z,28.07
2018-11-28T08:10:23.758Z,23.73
2018-11-28T08:12:53.826Z,29.80
2018-11-28T08:15:22.625Z,29.20
2018-11-28T08:17:51.372Z,29.52
2018-11-28T08:20:20.247Z,25.97
2018-11-28T08:22:49.018Z,29.70
2018-11-28T08:25:18.235Z,26.50
2018-11-28T08:27:48.223Z,29.70
2018-11-28T08:30:20.108Z,29.15
2018-11-28T08:32:48.931Z,28.67
2018-11-28T08:35:17.797Z,28.85
2018-11-28T08:37:46.788Z,29.12
2018-11-28T08:40:20.564Z,26.37
2018-11-28T08:42:49.540Z,30.65
2018-11-28T08:45:20.624Z,27.25
2018-11-28T08:47:51.888Z,23.87
2018-11-28T08:50:23.080Z,25.27
2018-11-28T08:52:53.593Z,25.27
2018-11-28T08:55:24.235Z,27.05
2018-11-28T08:57:54.531Z,25.62
2018-11-28T09:00:26.037Z,25.62
2018-11-28T09:02:56.522Z,26.07
2018-11-28T09:05:25.287Z,26.07
2018-11-28T09:07:54.177Z,26.70
2018-11-28T09:10:23.041Z,26.85
2018-11-28T09:12:52.211Z,24.90
2018-11-28T09:15:27.910Z,25.45
2018-11-28T09:18:05.951Z,23.18
2018-11-28T09:20:34.771Z,27.15
2018-11-28T09:23:04.757Z,23.12
2018-11-28T09:25:34.231Z,25.50
2018-11-28T09:28:03.680Z,23.70
2018-11-28T09:30:32.762Z,24.12
2018-11-28T09:33:02.596Z,25.23
2018-11-28T09:35:33.027Z,23.67
2018-11-28T09:38:03.672Z,21.77
2018-11-28T09:40:33.959Z,22.65
2018-11-28T09:43:03.461Z,22.02
2018-11-28T09:45:32.778Z,21.35
2018-11-28T09:48:02.399Z,25.57
2018-11-28T09:50:32.244Z,22.87
2018-11-28T09:53:02.713Z,25.05
2018-11-28T09:55:31.472Z,25.10
2018-11-28T09:58:00.262Z,22.32
2018-11-28T10:00:29.861Z,25.00
2018-11-28T10:03:04.629Z,27.58
2018-11-28T10:05:36.739Z,26.85
2018-11-28T10:08:06.839Z,24.43
2018-11-28T10:10:37.631Z,25.45
2018-11-28T10:13:07.213Z,26.23
2018-11-28T10:15:37.299Z,27.95
2018-11-28T10:18:06.919Z,23.70
2018-11-28T10:20:35.735Z,25.25
2018-11-28T10:23:11.658Z,27.00
2018-11-28T10:25:40.756Z,25.72
2018-11-28T10:28:16.571Z,24.70
2018-11-28T10:30:50.681Z,25.90
2018-11-28T10:33:24.357Z,23.45
2018-11-28T10:35:53.246Z,24.27
2018-11-28T10:38:31.366Z,23.98
2018-11-28T10:41:01.196Z,21.42
2018-11-28T10:43:51.723Z,22.20
2018-11-28T10:46:21.488Z,20.00
2018-11-28T10:48:52.089Z,20.57
2018-11-28T10:51:32.784Z,20.95
2018-11-28T10:54:18.713Z,19.90
2018-11-28T10:56:48.777Z,22.07
2018-11-28T10:59:17.556Z,21.50
2018-11-28T11:02:01.179Z,20.15
2018-11-28T11:04:40.005Z,19.65
2018-11-28T11:07:14.305Z,20.80
2018-11-28T11:09:48.402Z,20.85
2018-11-28T11:12:23.682Z,22.58
2018-11-28T11:14:52.971Z,20.85
2018-11-28T11:17:21.748Z,21.95
2018-11-28T11:19:50.537Z,21.57
2018-11-28T11:22:20.374Z,22.87
2018-11-28T11:24:50.904Z,21.87
2018-11-28T11:27:19.691Z,22.62
2018-11-28T11:29:55.691Z,23.38
2018-11-28T11:32:25.174Z,20.75
2018-11-28T11:34:53.948Z,22.17
2018-11-28T11:37:24.548Z,21.97
2018-11-28T11:39:53.720Z,21.82
2018-11-28T11:42:25.608Z,23.65
2018-11-28T11:44:56.342Z,23.83
2018-11-28T11:47:26.301Z,22.17
2018-11-28T11:49:55.091Z,21.77
2018-11-28T11:52:24.035Z,24.45
2018-11-28T11:54:55.242Z,22.50
2018-11-28T11:57:24.424Z,21.55
2018-11-28T11:59:53.364Z,20.75
2018-11-28T12:02:27.167Z,21.80
2018-11-28T12:04:56.254Z,19.90
2018-11-28T12:07:31.271Z,19.45
2018-11-28T12:10:17.552Z,21.17
2018-11-28T12:12:54.978Z,20.30
2018-11-28T12:15:47.283Z,20.10
2018-11-28T12:18:16.746Z,20.57
2018-11-28T12:20:47.396Z,19.32
2018-11-28T12:23:29.363Z,20.43
2018-11-28T12:26:03.823Z,20.10
2018-11-28T12:28:34.033Z,19.50
2018-11-28T12:34:18.569Z,19.80
2018-11-28T12:36:47.380Z,17.23
2018-11-28T12:39:16.192Z,17.65
2018-11-28T12:41:45.008Z,18.10
2018-11-28T12:44:13.905Z,17.60
2018-11-28T12:46:42.840Z,18.62
2018-11-28T12:49:11.687Z,18.23
2018-11-28T12:51:40.456Z,17.52
2018-11-28T12:56:50.739Z,17.85
2018-11-28T12:59:19.886Z,16.73
2018-11-28T13:01:49.532Z,18.20
2018-11-28T13:04:18.480Z,17.17
2018-11-28T13:06:47.586Z,14.90
2018-11-28T13:09:17.011Z,15.30
2018-11-28T13:14:45.290Z,15.63
2018-11-28T13:17:21.538Z,15.83
2018-11-28T13:22:54.888Z,18.30
2018-11-28T13:25:27.429Z,16.55
2018-11-28T13:27:56.605Z,15.85
2018-11-28T13:30:26.279Z,16.80
2018-11-28T13:32:56.040Z,16.00
2018-11-28T13:35:26.191Z,16.02
2018-11-28T13:38:01.291Z,17.92
2018-11-28T13:40:30.566Z,16.23
2018-11-28T13:43:00.278Z,16.82
2018-11-28T13:45:31.824Z,16.60
2018-11-28T13:48:00.709Z,17.17
2018-11-28T13:50:29.642Z,23.57
2018-11-28T13:52:59.972Z,17.42
2018-11-28T13:55:41.721Z,14.43
2018-11-28T13:58:08.874Z,14.73
2018-11-28T14:00:40.369Z,15.43
2018-11-28T14:03:09.636Z,15.48
2018-11-28T14:05:38.837Z,14.98
2018-11-28T14:08:07.747Z,14.55
2018-11-28T14:10:36.763Z,13.83
2018-11-28T14:13:06.166Z,13.80
2018-11-28T14:15:35.222Z,13.65
2018-11-28T14:18:12.581Z,14.95
2018-11-28T14:20:41.900Z,13.10
2018-11-28T14:23:21.407Z,13.80
2018-11-28T14:25:50.679Z,12.82
2018-11-28T14:28:19.780Z,13.65
2018-11-28T14:30:49.389Z,13.18
2018-11-28T14:33:18.451Z,13.53
2018-11-28T14:35:47.638Z,12.93
2018-11-28T14:38:16.533Z,12.58
2018-11-28T14:40:45.673Z,14.50
2018-11-28T14:43:14.861Z,11.73
2018-11-28T14:45:44.209Z,12.40
2018-11-28T14:48:13.238Z,13.30
2018-11-28T14:50:42.452Z,13.30
2018-11-28T14:53:11.787Z,13.28
2018-11-28T14:55:41.680Z,13.28
2018-11-28T14:58:11.972Z,13.43
2018-11-28T15:00:42.350Z,12.88
2018-11-28T15:03:14.785Z,13.93
2018-11-28T15:06:09.090Z,11.90
2018-11-28T15:08:38.654Z,13.93
2018-11-28T15:11:12.736Z,13.20
2018-11-28T15:13:47.868Z,11.48
2018-11-28T15:16:17.216Z,12.78
2018-11-28T15:18:46.225Z,12.88
2018-11-28T15:21:15.527Z,13.88
2018-11-28T15:23:44.689Z,11.85
2018-11-28T15:26:13.548Z,14.13
2018-11-28T15:28:42.454Z,13.05
2018-11-28T15:31:11.638Z,12.20
2018-11-28T15:33:41.049Z,15.13
2018-11-28T15:36:11.273Z,12.53
2018-11-28T15:38:40.975Z,12.55
2018-11-28T15:41:11.238Z,14.07
2018-11-28T15:43:41.038Z,12.45
2018-11-28T15:46:14.960Z,13.13
2018-11-28T15:48:40.630Z,14.25
2018-11-28T15:51:09.740Z,12.85
2018-11-28T15:53:38.772Z,18.10
2018-11-28T15:56:07.828Z,15.45
2018-11-28T15:58:38.056Z,14.65
2018-11-28T16:01:07.558Z,15.83
2018-11-28T16:03:39.175Z,14.38
2018-11-28T16:06:09.975Z,14.60
2018-11-28T16:08:40.205Z,13.20
2018-11-28T16:11:17.323Z,15.75
2018-11-28T16:13:48.888Z,15.40
2018-11-28T16:16:20.318Z,15.48
2018-11-28T16:18:57.713Z,15.80
2018-11-28T16:21:23.575Z,16.65
2018-11-28T16:23:55.143Z,15.25
2018-11-28T16:26:26.150Z,15.65
2018-11-28T16:28:56.586Z,17.32
2018-11-28T16:31:31.502Z,15.03
2018-11-28T16:34:02.284Z,14.47
2018-11-28T16:36:33.577Z,14.53
2018-11-28T16:39:03.655Z,15.45
2018-11-28T16:41:34.367Z,15.58
2018-11-28T16:44:05.095Z,15.48
2018-11-28T16:46:36.552Z,15.90
2018-11-28T16:49:06.402Z,16.80
2018-11-28T16:51:36.896Z,17.25
2018-11-28T16:54:07.415Z,15.80
2018-11-28T16:56:38.630Z,15.63
2018-11-28T16:59:08.811Z,15.25
2018-11-28T17:01:41.518Z,15.50
2018-11-28T17:04:13.424Z,15.10
2018-11-28T17:06:43.936Z,17.25
2018-11-28T17:09:14.852Z,17.02
2018-11-28T17:11:48.347Z,16.15
2018-11-28T17:14:18.573Z,14.68
2018-11-28T17:16:51.550Z,15.53
2018-11-28T17:19:22.011Z,15.35
2018-11-28T17:21:54.869Z,16.52
2018-11-28T17:24:27.371Z,15.28
2018-11-28T17:26:58.291Z,15.58
2018-11-28T17:29:30.944Z,17.07
2018-11-28T17:32:02.161Z,15.03
2018-11-28T17:34:32.831Z,16.73
2018-11-28T17:37:03.062Z,15.18
2018-11-28T17:39:34.448Z,15.70
2018-11-28T17:42:05.178Z,16.73
2018-11-28T17:44:36.210Z,16.73
2018-11-28T17:47:07.067Z,16.87
2018-11-28T17:49:36.710Z,16.35
2018-11-28T17:52:07.205Z,15.45
2018-11-28T17:54:37.983Z,16.48
2018-11-28T17:57:08.359Z,16.23
2018-11-28T17:59:40.486Z,16.55
2018-11-28T18:02:11.500Z,18.17
2018-11-28T18:04:42.394Z,15.88
2018-11-28T18:07:15.125Z,17.85
2018-11-28T18:09:46.870Z,16.02
2018-11-28T18:12:17.948Z,16.52
2018-11-28T18:14:48.471Z,15.43
2018-11-28T18:17:20.168Z,16.70
2018-11-28T18:19:51.551Z,17.42
2018-11-28T18:22:22.284Z,16.75
2018-11-28T18:24:52.835Z,16.55
2018-11-28T18:27:24.467Z,15.63
2018-11-28T18:29:55.726Z,14.98
2018-11-28T18:32:27.137Z,16.10
2018-11-28T18:35:00.611Z,16.12
2018-11-28T18:37:30.706Z,16.40
2018-11-28T18:40:00.069Z,17.85
2018-11-28T18:42:29.927Z,16.48
2018-11-28T18:44:58.907Z,16.10
2018-11-28T18:47:27.900Z,16.20
2018-11-28T18:49:56.935Z,15.63
2018-11-28T18:52:25.915Z,13.48
2018-11-28T18:54:55.115Z,15.72
2018-11-28T18:57:24.376Z,16.07
2018-11-28T18:59:53.796Z,16.75
2018-11-28T19:02:22.761Z,15.50
2018-11-28T19:04:51.783Z,15.50
2018-11-28T19:07:22.128Z,16.73
2018-11-28T19:09:52.556Z,18.20
2018-11-28T19:12:21.902Z,15.80
2018-11-28T19:14:50.937Z,17.65
2018-11-28T19:17:19.825Z,17.15
2018-11-28T19:19:48.946Z,16.67
2018-11-28T19:22:18.247Z,17.40
2018-11-28T19:24:48.165Z,17.80
2018-11-28T19:27:17.696Z,16.42
2018-11-28T19:29:48.063Z,16.20
2018-11-28T19:32:17.162Z,17.10
2018-11-28T19:34:46.302Z,17.48
2018-11-28T19:37:15.270Z,17.87
2018-11-28T19:39:44.223Z,18.17
2018-11-28T19:42:13.072Z,17.25
2018-11-28T19:44:41.992Z,16.82
2018-11-28T19:47:13.620Z,19.20
2018-11-28T19:49:53.249Z,17.27
2018-11-28T19:52:24.332Z,17.42
2018-11-28T19:54:53.401Z,16.35
2018-11-28T19:57:22.322Z,16.80
2018-11-28T19:59:51.285Z,17.95
2018-11-28T20:02:23.530Z,15.32
2018-11-28T20:04:52.776Z,16.02
2018-11-28T20:07:21.900Z,15.75
2018-11-28T20:09:55.037Z,15.75
2018-11-28T20:12:23.960Z,16.30
2018-11-28T20:14:53.961Z,16.23
2018-11-28T20:17:22.961Z,15.43
2018-11-28T20:19:51.952Z,17.00
2018-11-28T20:22:21.018Z,16.25
2018-11-28T20:24:50.760Z,17.20
2018-11-28T20:27:19.684Z,17.60
2018-11-28T20:29:48.735Z,16.75
2018-11-28T20:32:17.809Z,18.77
2018-11-28T20:34:46.756Z,16.55
2018-11-28T20:37:15.937Z,16.40
2018-11-28T20:39:45.073Z,17.75
2018-11-28T20:42:14.037Z,17.25
2018-11-28T20:44:44.045Z,15.60
2018-11-28T20:47:13.336Z,18.30
2018-11-28T20:49:42.437Z,18.50
2018-11-28T20:52:11.514Z,18.73
2018-11-28T20:54:40.781Z,17.52
2018-11-28T20:57:09.778Z,19.23
2018-11-28T20:59:39.143Z,18.20
2018-11-28T21:02:08.009Z,20.85
2018-11-28T21:04:38.365Z,23.62
2018-11-28T21:07:09.432Z,22.67
2018-11-28T21:09:43.500Z,18.95
2018-11-28T21:12:12.711Z,19.80
2018-11-28T21:14:41.875Z,17.25
2018-11-28T21:17:10.943Z,18.45
2018-11-28T21:19:39.820Z,17.98
2018-11-28T21:22:08.862Z,17.62
2018-11-28T21:24:37.920Z,19.23
2018-11-28T21:27:07.171Z,15.88
2018-11-28T21:29:36.177Z,16.87
2018-11-28T21:32:05.193Z,17.65
2018-11-28T21:34:34.288Z,18.05
2018-11-28T21:37:03.294Z,17.92
2018-11-28T21:39:32.296Z,15.93
2018-11-28T21:42:01.242Z,16.42
2018-11-28T21:44:32.852Z,19.02
2018-11-28T21:47:04.458Z,16.15
2018-11-28T21:49:33.649Z,15.53
2018-11-28T21:52:02.500Z,18.52
2018-11-28T21:54:31.447Z,16.30
2018-11-28T21:57:00.603Z,18.25
2018-11-28T21:59:30.021Z,18.23
2018-11-28T22:01:59.834Z,16.97
2018-11-28T22:04:29.222Z,16.27
2018-11-28T22:06:58.743Z,18.85
2018-11-28T22:09:32.052Z,16.82
2018-11-28T22:12:01.388Z,17.12
2018-11-28T22:14:30.325Z,18.32
2018-11-28T22:16:59.279Z,16.02
2018-11-28T22:19:28.359Z,17.77
2018-11-28T22:21:57.745Z,17.07
2018-11-28T22:24:26.850Z,17.57
2018-11-28T22:26:55.945Z,17.57
2018-11-28T22:29:24.887Z,16.85
2018-11-28T22:31:54.155Z,17.82
2018-11-28T22:34:23.605Z,16.82
2018-11-28T22:36:54.876Z,16.50
2018-11-28T22:39:24.184Z,17.45
2018-11-28T22:41:53.490Z,18.07
2018-11-28T22:44:22.617Z,17.98
2018-11-28T22:46:51.565Z,15.93
2018-11-28T22:49:20.682Z,17.37
2018-11-28T22:51:50.313Z,17.30
2018-11-28T22:54:19.468Z,15.50
2018-11-28T22:56:48.872Z,15.78
2018-11-28T22:59:18.005Z,18.57
2018-11-28T23:03:59.983Z,19.30
2018-11-28T23:06:30.124Z,19.57
2018-11-28T23:08:59.850Z,18.95
2018-11-28T23:11:29.079Z,20.20
2018-11-28T23:13:58.689Z,19.27
2018-11-28T23:16:27.949Z,19.75
2018-11-28T23:18:57.633Z,17.55
2018-11-28T23:21:28.319Z,18.20
2018-11-28T23:23:57.424Z,19.05
2018-11-28T23:26:28.123Z,20.05
2018-11-28T23:28:58.621Z,18.90
2018-11-28T23:31:27.717Z,18.57
2018-11-28T23:33:56.719Z,18.65
2018-11-28T23:36:25.719Z,19.23
2018-11-28T23:38:54.773Z,20.05
2018-11-28T23:41:23.592Z,19.95
2018-11-28T23:43:52.609Z,20.65
2018-11-28T23:46:21.526Z,18.37
2018-11-28T23:48:50.832Z,20.50
2018-11-28T23:51:19.742Z,20.12
2018-11-28T23:53:48.775Z,19.25
2018-11-28T23:56:17.801Z,20.45
2018-11-28T23:58:46.773Z,19.00
